Time;durP1;ratioP1;P1;durP2;ratioP2;P2;SDS_P1;SDS_P2;PMS_P1;PMS_P2;Temp;Humidity;BMP_temperature;BMP_pressure;BME280_temperature;BME280_humidity;BME280_pressure;Samples;Min_cycle;Max_cycle;Signal;HPM_P1;HPM_P2
2022/01/15 00:01:37;;;;;;;74.22;28.23;;;;;;;;;;5030913;28;20036;-58
2022/01/15 00:04:03;;;;;;;66.78;24.88;;;;;;;;;;5026432;28;20029;-57
2022/01/15 00:06:29;;;;;;;73.32;27.75;;;;;;;;;;5026368;28;20664;-59
2022/01/15 00:08:55;;;;;;;68.68;26.75;;;;;;;;;;5022286;28;20034;-57
2022/01/15 00:11:21;;;;;;;72.22;27.83;;;;;;;;;;5026268;28;20025;-59
2022/01/15 00:13:54;;;;;;;70.57;26.73;;;;;;;;;;5026448;28;20033;-59
2022/01/15 00:17:05;;;;;;;71.50;25.88;;;;;;;;;;5028903;28;20024;-58
2022/01/15 00:19:11;;;;;;;69.25;25.33;;;;;;;;;;5021142;28;20059;-58
2022/01/15 00:21:38;;;;;;;76.20;26.60;;;;;;;;;;5028093;28;20044;-58
2022/01/15 00:24:04;;;;;;;76.03;28.63;;;;;;;;;;5028966;28;20036;-58
2022/01/15 00:26:30;;;;;;;77.78;28.52;;;;;;;;;;5032202;28;20068;-59
2022/01/15 00:28:56;;;;;;;76.63;29.73;;;;;;;;;;5035444;28;20021;-58
2022/01/15 00:31:22;;;;;;;84.93;31.52;;;;;;;;;;5026464;28;20524;-60
2022/01/15 00:33:48;;;;;;;84.15;30.17;;;;;;;;;;5021464;28;20614;-58
2022/01/15 00:36:15;;;;;;;75.78;30.73;;;;;;;;;;5029978;28;20021;-59
2022/01/15 00:38:42;;;;;;;81.38;29.25;;;;;;;;;;5026545;28;20026;-58
2022/01/15 00:41:08;;;;;;;80.78;28.95;;;;;;;;;;5031164;28;20033;-58
2022/01/15 00:43:34;;;;;;;75.57;29.65;;;;;;;;;;5029972;28;20017;-60
2022/01/15 00:46:00;;;;;;;73.57;27.38;;;;;;;;;;5028981;28;20044;-59
2022/01/15 00:48:26;;;;;;;73.55;27.50;;;;;;;;;;5030602;28;20033;-58
2022/01/15 00:50:52;;;;;;;67.65;25.33;;;;;;;;;;5033653;28;20502;-59
2022/01/15 00:53:18;;;;;;;62.72;26.00;;;;;;;;;;5032576;28;20029;-59
2022/01/15 00:55:45;;;;;;;61.92;23.92;;;;;;;;;;5030551;28;20064;-58
2022/01/15 00:58:12;;;;;;;63.63;25.00;;;;;;;;;;5025829;28;20037;-58
2022/01/15 01:00:38;;;;;;;62.75;23.48;;;;;;;;;;5028472;28;20517;-59
2022/01/15 01:03:04;;;;;;;67.32;23.75;;;;;;;;;;5030252;28;20116;-58
2022/01/15 01:05:30;;;;;;;69.53;26.75;;;;;;;;;;5036854;28;20040;-59
2022/01/15 01:07:57;;;;;;;61.20;23.40;;;;;;;;;;5035721;28;20021;-59
2022/01/15 01:10:48;;;;;;;58.55;23.60;;;;;;;;;;5025148;28;20532;-58
2022/01/15 01:13:38;;;;;;;60.22;21.50;;;;;;;;;;5030723;28;20021;-58
2022/01/15 01:24:16;;;;;;;63.10;22.85;;;;;;;;;;5025072;28;20666;-58
2022/01/15 01:26:52;;;;;;;56.50;22.63;;;;;;;;;;5029507;28;20043;-57
2022/01/15 01:32:11;;;;;;;58.65;22.13;;;;;;;;;;5021411;28;20579;-58
2022/01/15 01:34:40;;;;;;;66.43;22.80;;;;;;;;;;5031792;28;20444;-59
2022/01/15 01:40:07;;;;;;;69.43;24.20;;;;;;;;;;5030578;28;20095;-58
2022/01/15 01:42:36;;;;;;;63.72;24.95;;;;;;;;;;5020676;28;20044;-59
2022/01/15 01:45:08;;;;;;;62.78;24.02;;;;;;;;;;5027194;28;20032;-59
2022/01/15 01:47:40;;;;;;;61.65;23.95;;;;;;;;;;5013192;28;20127;-60
2022/01/15 01:50:09;;;;;;;61.08;22.88;;;;;;;;;;5032265;28;20043;-59
2022/01/15 01:52:35;;;;;;;59.03;23.73;;;;;;;;;;5022548;28;20041;-59
2022/01/15 01:55:01;;;;;;;57.50;22.80;;;;;;;;;;5029661;28;20028;-58
2022/01/15 01:57:27;;;;;;;55.45;21.27;;;;;;;;;;5032197;28;20034;-59
2022/01/15 01:59:53;;;;;;;51.65;21.52;;;;;;;;;;5027112;28;22043;-58
2022/01/15 02:02:19;;;;;;;61.33;23.00;;;;;;;;;;5026326;28;20065;-57
2022/01/15 02:04:45;;;;;;;57.50;20.58;;;;;;;;;;5023795;28;20108;-59
2022/01/15 02:07:11;;;;;;;56.50;20.13;;;;;;;;;;5024815;28;21072;-58
2022/01/15 02:09:38;;;;;;;48.92;20.80;;;;;;;;;;5031921;28;20026;-58
2022/01/15 02:12:04;;;;;;;53.13;20.27;;;;;;;;;;5025878;28;20025;-57
2022/01/15 02:14:31;;;;;;;54.35;21.48;;;;;;;;;;5028914;28;20033;-59
2022/01/15 02:16:57;;;;;;;50.65;19.60;;;;;;;;;;5027238;28;20049;-59
2022/01/15 02:19:29;;;;;;;56.25;21.00;;;;;;;;;;5025263;28;20104;-58
2022/01/15 02:24:39;;;;;;;52.78;20.70;;;;;;;;;;5030449;28;20121;-59
2022/01/15 02:27:05;;;;;;;45.13;19.48;;;;;;;;;;5024524;28;20528;-59
2022/01/15 02:29:31;;;;;;;57.53;20.23;;;;;;;;;;5025198;28;20024;-59
2022/01/15 02:31:57;;;;;;;56.17;21.90;;;;;;;;;;5023894;28;20118;-58
2022/01/15 02:34:23;;;;;;;57.67;21.83;;;;;;;;;;5029879;28;20032;-58
2022/01/15 02:36:49;;;;;;;59.40;21.25;;;;;;;;;;5033677;28;20594;-58
2022/01/15 02:39:15;;;;;;;57.20;20.40;;;;;;;;;;5022194;28;20116;-58
2022/01/15 02:41:41;;;;;;;56.90;21.25;;;;;;;;;;5029508;28;20028;-58
2022/01/15 02:44:19;;;;;;;59.92;21.40;;;;;;;;;;5020451;28;20030;-58
2022/01/15 02:49:15;;;;;;;57.70;21.30;;;;;;;;;;5024457;28;20114;-58
2022/01/15 02:51:41;;;;;;;61.17;21.17;;;;;;;;;;5022581;28;20048;-59
2022/01/15 02:54:07;;;;;;;55.95;19.98;;;;;;;;;;5027945;28;20045;-59
2022/01/15 02:56:43;;;;;;;56.25;21.98;;;;;;;;;;5027007;28;20037;-59
2022/01/15 02:59:10;;;;;;;58.78;21.60;;;;;;;;;;5030297;28;20549;-59
2022/01/15 03:01:36;;;;;;;54.40;21.35;;;;;;;;;;5024861;28;20476;-59
2022/01/15 03:04:03;;;;;;;53.20;21.50;;;;;;;;;;5032380;28;20039;-59
2022/01/15 03:06:29;;;;;;;55.95;21.02;;;;;;;;;;5028146;28;20345;-58
2022/01/15 03:08:55;;;;;;;60.28;22.40;;;;;;;;;;5026334;28;20033;-58
2022/01/15 03:11:22;;;;;;;57.47;22.00;;;;;;;;;;5025117;28;20039;-58
2022/01/15 03:13:48;;;;;;;61.35;21.25;;;;;;;;;;5022982;28;20108;-59
2022/01/15 03:16:18;;;;;;;56.60;21.42;;;;;;;;;;5023359;28;20072;-58
2022/01/15 03:18:44;;;;;;;56.75;21.77;;;;;;;;;;5024819;28;20028;-59
2022/01/15 03:21:11;;;;;;;59.08;22.67;;;;;;;;;;5029556;28;20025;-59
2022/01/15 03:23:37;;;;;;;53.17;19.98;;;;;;;;;;5024215;28;20037;-59
2022/01/15 03:26:03;;;;;;;58.13;21.58;;;;;;;;;;5029110;28;20461;-58
2022/01/15 03:28:29;;;;;;;53.53;20.17;;;;;;;;;;5031708;28;20270;-58
2022/01/15 03:30:55;;;;;;;58.10;19.33;;;;;;;;;;5024608;28;20025;-59
2022/01/15 03:33:21;;;;;;;54.83;19.15;;;;;;;;;;5024463;28;20460;-58
2022/01/15 03:35:47;;;;;;;56.35;18.48;;;;;;;;;;5030836;28;20037;-59
2022/01/15 03:38:13;;;;;;;52.75;19.10;;;;;;;;;;5018400;28;20036;-59
2022/01/15 03:40:39;;;;;;;54.80;18.67;;;;;;;;;;5024282;28;20022;-59
2022/01/15 03:43:05;;;;;;;51.97;18.73;;;;;;;;;;5010145;28;20436;-59
2022/01/15 03:45:31;;;;;;;54.28;17.67;;;;;;;;;;5017380;28;20029;-58
2022/01/15 03:47:57;;;;;;;51.80;17.95;;;;;;;;;;5017421;28;20072;-59
2022/01/15 03:50:24;;;;;;;49.92;17.65;;;;;;;;;;5034530;28;20021;-59
2022/01/15 03:52:51;;;;;;;53.72;18.65;;;;;;;;;;5028927;28;20041;-59
2022/01/15 03:55:17;;;;;;;56.10;19.40;;;;;;;;;;5022251;28;20600;-57
2022/01/15 03:57:43;;;;;;;55.95;20.52;;;;;;;;;;5025072;28;20104;-58
2022/01/15 04:00:17;;;;;;;58.15;21.92;;;;;;;;;;5029815;28;20029;-58
2022/01/15 04:02:43;;;;;;;65.97;22.83;;;;;;;;;;5025362;28;20104;-57
2022/01/15 04:05:10;;;;;;;55.70;19.63;;;;;;;;;;5026283;28;20420;-58
2022/01/15 04:07:36;;;;;;;53.10;20.92;;;;;;;;;;5016867;28;20033;-57
2022/01/15 04:10:03;;;;;;;54.63;20.73;;;;;;;;;;5021150;28;20385;-58
2022/01/15 04:12:29;;;;;;;55.97;20.33;;;;;;;;;;5016521;28;20053;-59
2022/01/15 04:14:55;;;;;;;50.85;20.05;;;;;;;;;;5022707;28;20033;-57
2022/01/15 04:17:21;;;;;;;47.63;19.27;;;;;;;;;;5020825;28;20109;-58
2022/01/15 04:19:47;;;;;;;49.85;20.15;;;;;;;;;;5033771;28;20021;-58
2022/01/15 04:22:13;;;;;;;50.65;20.15;;;;;;;;;;5031385;28;20060;-57
2022/01/15 04:24:39;;;;;;;46.97;19.58;;;;;;;;;;5029407;28;20470;-59
2022/01/15 04:27:05;;;;;;;51.00;19.70;;;;;;;;;;5025939;28;20052;-58
2022/01/15 04:29:33;;;;;;;38.20;17.48;;;;;;;;;;5022080;28;20049;-58
2022/01/15 04:32:00;;;;;;;47.88;19.20;;;;;;;;;;5023548;28;20153;-58
2022/01/15 04:34:27;;;;;;;45.88;18.83;;;;;;;;;;5025016;28;20026;-59
2022/01/15 04:36:57;;;;;;;41.95;16.98;;;;;;;;;;5019323;28;20877;-58
2022/01/15 04:39:23;;;;;;;44.78;17.80;;;;;;;;;;5013900;28;20037;-58
2022/01/15 04:41:49;;;;;;;43.15;17.20;;;;;;;;;;5028148;28;20030;-59
2022/01/15 04:44:15;;;;;;;38.17;17.63;;;;;;;;;;5035730;28;20657;-59
2022/01/15 04:46:41;;;;;;;37.67;17.33;;;;;;;;;;5024188;28;20087;-58
2022/01/15 04:49:07;;;;;;;38.15;17.02;;;;;;;;;;5028233;28;20150;-59
2022/01/15 04:51:33;;;;;;;34.40;15.38;;;;;;;;;;5018818;28;20385;-60
2022/01/15 04:54:00;;;;;;;30.52;15.45;;;;;;;;;;5023962;28;20056;-60
2022/01/15 04:56:26;;;;;;;32.78;16.08;;;;;;;;;;5019709;28;20033;-58
2022/01/15 04:58:52;;;;;;;31.48;13.90;;;;;;;;;;5028022;28;20501;-58
2022/01/15 05:01:18;;;;;;;33.28;15.20;;;;;;;;;;5024841;28;20030;-58
2022/01/15 05:03:44;;;;;;;29.10;15.23;;;;;;;;;;5026557;28;20495;-59
2022/01/15 05:06:10;;;;;;;26.77;13.52;;;;;;;;;;5026482;28;20034;-59
2022/01/15 05:08:36;;;;;;;24.48;12.30;;;;;;;;;;5023783;28;20055;-59
2022/01/15 05:11:12;;;;;;;25.58;13.00;;;;;;;;;;5018580;28;20378;-58
2022/01/15 05:13:39;;;;;;;27.23;13.50;;;;;;;;;;5031657;28;20098;-58
2022/01/15 05:16:05;;;;;;;26.75;13.23;;;;;;;;;;5016476;28;20270;-59
2022/01/15 05:18:31;;;;;;;26.38;14.05;;;;;;;;;;5026521;28;20368;-59
2022/01/15 05:20:57;;;;;;;23.05;12.52;;;;;;;;;;5022049;28;20106;-58
2022/01/15 05:23:23;;;;;;;20.98;12.13;;;;;;;;;;5024546;28;20473;-59
2022/01/15 05:25:49;;;;;;;24.35;13.07;;;;;;;;;;5024513;28;20026;-58
2022/01/15 05:28:15;;;;;;;25.42;13.73;;;;;;;;;;5027792;28;20515;-58
2022/01/15 05:30:41;;;;;;;21.40;12.27;;;;;;;;;;5021213;28;20033;-59
2022/01/15 05:33:07;;;;;;;23.23;12.40;;;;;;;;;;5024913;28;20029;-59
2022/01/15 05:35:33;;;;;;;24.23;13.45;;;;;;;;;;5028234;28;20060;-59
2022/01/15 05:38:00;;;;;;;27.15;14.30;;;;;;;;;;5026083;28;20025;-58
2022/01/15 05:40:27;;;;;;;26.33;14.88;;;;;;;;;;5029423;28;20037;-59
2022/01/15 05:42:53;;;;;;;29.50;14.32;;;;;;;;;;5036744;28;20057;-57
2022/01/15 05:45:21;;;;;;;26.60;14.77;;;;;;;;;;5021515;28;20033;-59
2022/01/15 05:47:48;;;;;;;29.63;14.88;;;;;;;;;;5033303;28;20039;-58
2022/01/15 05:50:14;;;;;;;26.77;14.63;;;;;;;;;;5031533;28;20025;-57
2022/01/15 05:52:41;;;;;;;23.63;13.23;;;;;;;;;;5022799;28;20461;-58
2022/01/15 05:55:07;;;;;;;24.23;14.15;;;;;;;;;;5031292;28;20018;-58
2022/01/15 05:57:33;;;;;;;27.35;14.30;;;;;;;;;;5025739;28;20049;-60
2022/01/15 05:59:59;;;;;;;24.42;14.13;;;;;;;;;;5030066;28;20084;-58
2022/01/15 06:02:25;;;;;;;25.90;14.85;;;;;;;;;;5028769;28;20028;-59
2022/01/15 06:04:51;;;;;;;26.38;14.60;;;;;;;;;;5031470;28;20033;-59
2022/01/15 06:07:17;;;;;;;23.35;13.63;;;;;;;;;;5029422;28;20114;-59
2022/01/15 06:09:43;;;;;;;27.73;15.35;;;;;;;;;;5022690;28;20037;-59
2022/01/15 06:12:10;;;;;;;29.88;15.02;;;;;;;;;;5022392;28;20072;-58
2022/01/15 06:14:36;;;;;;;25.98;15.35;;;;;;;;;;5029045;28;20097;-58
2022/01/15 06:17:08;;;;;;;27.80;14.68;;;;;;;;;;5028932;28;20366;-58
2022/01/15 06:19:34;;;;;;;28.33;15.52;;;;;;;;;;5022031;28;20037;-59
2022/01/15 06:22:00;;;;;;;26.73;15.48;;;;;;;;;;5034375;28;20112;-58
2022/01/15 06:24:26;;;;;;;28.20;16.25;;;;;;;;;;5027692;28;20468;-59
2022/01/15 06:26:52;;;;;;;27.92;16.17;;;;;;;;;;5028283;28;20025;-59
2022/01/15 06:29:20;;;;;;;29.58;16.70;;;;;;;;;;5027203;28;20025;-58
2022/01/15 06:31:46;;;;;;;30.00;15.75;;;;;;;;;;5026767;28;20515;-59
2022/01/15 06:34:12;;;;;;;34.05;18.02;;;;;;;;;;5036475;28;20029;-58
2022/01/15 06:36:38;;;;;;;36.08;19.02;;;;;;;;;;5027964;28;20040;-58
2022/01/15 06:39:04;;;;;;;36.60;18.75;;;;;;;;;;5025227;28;20035;-59
2022/01/15 06:41:30;;;;;;;34.35;17.92;;;;;;;;;;5028219;28;20057;-58
2022/01/15 06:43:56;;;;;;;34.88;19.17;;;;;;;;;;5020668;28;20841;-58
2022/01/15 06:46:22;;;;;;;39.65;19.15;;;;;;;;;;5023858;28;20033;-59
2022/01/15 06:48:48;;;;;;;34.10;17.17;;;;;;;;;;5022777;28;20025;-58
2022/01/15 06:51:14;;;;;;;37.22;18.40;;;;;;;;;;5025770;28;20088;-57
2022/01/15 06:53:40;;;;;;;40.75;17.58;;;;;;;;;;5025171;28;20033;-58
2022/01/15 06:56:06;;;;;;;34.78;17.52;;;;;;;;;;5031292;28;20045;-58
2022/01/15 06:58:32;;;;;;;40.05;18.33;;;;;;;;;;5019123;28;20576;-59
2022/01/15 07:00:58;;;;;;;43.15;19.48;;;;;;;;;;5032889;28;20071;-58
2022/01/15 07:03:24;;;;;;;40.28;19.30;;;;;;;;;;5018123;28;20109;-58
2022/01/15 07:05:50;;;;;;;43.83;20.23;;;;;;;;;;5019452;28;20033;-59
2022/01/15 07:08:16;;;;;;;39.67;19.23;;;;;;;;;;5025615;28;20452;-59
2022/01/15 07:10:43;;;;;;;39.63;19.15;;;;;;;;;;5027728;28;20032;-58
2022/01/15 07:13:09;;;;;;;43.47;19.10;;;;;;;;;;5014721;28;20025;-58
2022/01/15 07:15:36;;;;;;;42.72;20.63;;;;;;;;;;5026822;28;20049;-60
2022/01/15 07:18:02;;;;;;;46.13;20.60;;;;;;;;;;5031560;28;20496;-58
2022/01/15 07:20:28;;;;;;;49.10;22.77;;;;;;;;;;5039924;28;20031;-58
2022/01/15 07:22:54;;;;;;;48.47;21.48;;;;;;;;;;5026287;28;20127;-57
2022/01/15 07:25:20;;;;;;;44.67;21.45;;;;;;;;;;5028179;28;20108;-57
2022/01/15 07:27:47;;;;;;;45.40;21.65;;;;;;;;;;5026376;28;20103;-58
2022/01/15 07:30:14;;;;;;;39.55;20.38;;;;;;;;;;5033242;28;20086;-58
2022/01/15 07:32:40;;;;;;;40.35;21.23;;;;;;;;;;5026011;28;20439;-58
2022/01/15 07:35:07;;;;;;;44.10;20.48;;;;;;;;;;5027532;28;20053;-59
2022/01/15 07:37:33;;;;;;;38.75;20.35;;;;;;;;;;5021117;28;20032;-60
2022/01/15 07:40:00;;;;;;;44.30;21.13;;;;;;;;;;5022958;28;20033;-61
2022/01/15 07:42:28;;;;;;;41.90;20.80;;;;;;;;;;5023386;28;20732;-60
2022/01/15 07:44:54;;;;;;;47.92;22.98;;;;;;;;;;5018604;28;20598;-60
2022/01/15 07:47:20;;;;;;;47.58;22.90;;;;;;;;;;5021314;28;20059;-61
2022/01/15 07:49:46;;;;;;;39.13;21.20;;;;;;;;;;5021811;28;20647;-60
2022/01/15 07:52:12;;;;;;;44.53;21.73;;;;;;;;;;5028326;28;20109;-60
2022/01/15 07:54:38;;;;;;;43.47;22.08;;;;;;;;;;5023637;28;20021;-59
2022/01/15 07:57:04;;;;;;;38.60;20.52;;;;;;;;;;5025334;28;20103;-60
2022/01/15 07:59:30;;;;;;;37.70;19.33;;;;;;;;;;5018367;28;20481;-60
2022/01/15 08:01:56;;;;;;;33.42;18.27;;;;;;;;;;5026914;28;20402;-60
2022/01/15 08:04:22;;;;;;;37.97;20.15;;;;;;;;;;5015647;28;20075;-60
2022/01/15 08:06:48;;;;;;;31.42;18.08;;;;;;;;;;5015999;28;20104;-60
2022/01/15 08:09:14;;;;;;;42.47;19.02;;;;;;;;;;5017370;28;20062;-60
2022/01/15 08:11:40;;;;;;;39.22;19.80;;;;;;;;;;5020719;28;20805;-60
2022/01/15 08:14:06;;;;;;;33.63;18.45;;;;;;;;;;5025056;28;20037;-60
2022/01/15 08:16:32;;;;;;;37.45;19.00;;;;;;;;;;5033010;28;20033;-60
2022/01/15 08:18:58;;;;;;;35.42;18.90;;;;;;;;;;5021366;28;20404;-61
2022/01/15 08:21:24;;;;;;;37.20;19.75;;;;;;;;;;5029468;28;20065;-60
2022/01/15 08:23:50;;;;;;;37.88;19.40;;;;;;;;;;5027606;28;20032;-59
2022/01/15 08:26:16;;;;;;;36.00;19.58;;;;;;;;;;5030702;28;20055;-60
2022/01/15 08:28:42;;;;;;;38.20;20.45;;;;;;;;;;5025510;28;20068;-60
2022/01/15 08:31:08;;;;;;;36.75;20.17;;;;;;;;;;5028676;28;20032;-59
2022/01/15 08:33:34;;;;;;;36.25;19.85;;;;;;;;;;5029713;28;20573;-60
2022/01/15 08:36:00;;;;;;;38.85;19.20;;;;;;;;;;5027765;28;20036;-59
2022/01/15 08:38:26;;;;;;;43.53;20.70;;;;;;;;;;5017771;28;20037;-60
2022/01/15 08:40:52;;;;;;;39.50;20.90;;;;;;;;;;5024694;28;20085;-60
2022/01/15 08:43:18;;;;;;;41.00;21.02;;;;;;;;;;5038725;28;20031;-59
2022/01/15 08:45:46;;;;;;;47.47;23.95;;;;;;;;;;5030460;28;20683;-59
2022/01/15 08:48:12;;;;;;;41.50;22.58;;;;;;;;;;5034767;28;20017;-60
2022/01/15 08:50:38;;;;;;;55.08;26.20;;;;;;;;;;5039717;28;20104;-60
2022/01/15 08:53:06;;;;;;;44.20;21.33;;;;;;;;;;5025515;28;20028;-60
2022/01/15 08:55:33;;;;;;;44.33;20.98;;;;;;;;;;5033685;28;20029;-60
2022/01/15 08:57:59;;;;;;;42.30;22.23;;;;;;;;;;5036596;28;20033;-60
2022/01/15 09:00:27;;;;;;;41.00;21.08;;;;;;;;;;5017679;28;20064;-60
2022/01/15 09:02:54;;;;;;;42.35;21.95;;;;;;;;;;5029034;28;20031;-60
2022/01/15 09:05:20;;;;;;;44.38;21.88;;;;;;;;;;5035845;28;20056;-60
2022/01/15 09:07:46;;;;;;;46.58;22.90;;;;;;;;;;5040627;28;20026;-61
2022/01/15 09:10:13;;;;;;;45.88;23.50;;;;;;;;;;5030152;28;20033;-61
2022/01/15 09:12:39;;;;;;;44.00;24.00;;;;;;;;;;5041784;28;20800;-61
2022/01/15 09:15:05;;;;;;;42.67;21.95;;;;;;;;;;5038442;28;20029;-60
2022/01/15 09:17:31;;;;;;;42.97;22.77;;;;;;;;;;5041894;28;20490;-60
2022/01/15 09:19:57;;;;;;;42.60;22.02;;;;;;;;;;5031681;28;20117;-60
2022/01/15 09:22:23;;;;;;;39.75;21.35;;;;;;;;;;5042427;28;20033;-60
2022/01/15 09:24:49;;;;;;;42.40;21.88;;;;;;;;;;5033666;28;20033;-59
2022/01/15 09:30:12;;;;;;;40.90;21.70;;;;;;;;;;5036808;28;20110;-61
2022/01/15 09:32:40;;;;;;;43.17;21.65;;;;;;;;;;5031388;28;20021;-61
2022/01/15 09:35:15;;;;;;;42.92;22.15;;;;;;;;;;5043689;28;20098;-59
2022/01/15 09:37:41;;;;;;;39.47;20.50;;;;;;;;;;5034931;28;20022;-60
2022/01/15 09:40:09;;;;;;;39.65;22.08;;;;;;;;;;5037060;28;20035;-60
2022/01/15 09:42:35;;;;;;;39.20;20.77;;;;;;;;;;5040546;28;20036;-60
2022/01/15 09:45:02;;;;;;;38.28;19.75;;;;;;;;;;5029831;28;20100;-60
2022/01/15 09:47:28;;;;;;;39.45;21.55;;;;;;;;;;5026431;28;20045;-59
2022/01/15 09:49:55;;;;;;;38.83;21.48;;;;;;;;;;5034099;28;20572;-60
2022/01/15 09:52:22;;;;;;;42.70;22.77;;;;;;;;;;5025568;28;20029;-61
2022/01/15 09:54:50;;;;;;;41.05;21.83;;;;;;;;;;5037382;28;20162;-60
2022/01/15 09:57:16;;;;;;;35.30;20.52;;;;;;;;;;5027777;28;20029;-60
2022/01/15 09:59:42;;;;;;;36.03;20.50;;;;;;;;;;5023901;28;20488;-60
2022/01/15 10:02:08;;;;;;;33.13;19.55;;;;;;;;;;5024433;28;20052;-61
2022/01/15 10:04:35;;;;;;;32.78;18.92;;;;;;;;;;5026861;28;20056;-60
2022/01/15 10:07:15;;;;;;;33.22;19.85;;;;;;;;;;5029688;28;20090;-60
2022/01/15 10:09:42;;;;;;;39.90;21.90;;;;;;;;;;5024357;28;20456;-61
2022/01/15 10:12:08;;;;;;;50.47;26.00;;;;;;;;;;5033278;28;20025;-60
2022/01/15 10:14:41;;;;;;;34.50;19.05;;;;;;;;;;5024517;28;20033;-60
2022/01/15 10:17:27;;;;;;;32.67;18.85;;;;;;;;;;5026173;28;20024;-60
2022/01/15 10:19:54;;;;;;;32.22;18.05;;;;;;;;;;5028715;28;20033;-60
2022/01/15 10:22:24;;;;;;;27.45;17.23;;;;;;;;;;5025984;28;20579;-60
2022/01/15 10:24:55;;;;;;;29.15;17.35;;;;;;;;;;5030171;28;20451;-60
2022/01/15 10:27:21;;;;;;;29.90;18.27;;;;;;;;;;5025120;28;20084;-60
2022/01/15 10:30:02;;;;;;;27.98;17.17;;;;;;;;;;5028897;28;20533;-59
2022/01/15 10:32:29;;;;;;;27.77;17.13;;;;;;;;;;5027112;28;20040;-59
2022/01/15 10:34:56;;;;;;;27.63;17.80;;;;;;;;;;5031504;28;20385;-60
2022/01/15 10:37:23;;;;;;;29.05;17.25;;;;;;;;;;5021995;28;20037;-60
2022/01/15 10:40:04;;;;;;;28.27;17.30;;;;;;;;;;5032629;28;20413;-59
2022/01/15 10:42:31;;;;;;;31.80;18.60;;;;;;;;;;5026110;28;20029;-59
2022/01/15 10:44:58;;;;;;;35.05;20.45;;;;;;;;;;5031349;28;20569;-59
2022/01/15 10:47:28;;;;;;;28.33;16.80;;;;;;;;;;5028021;28;20043;-59
2022/01/15 10:49:58;;;;;;;29.17;17.45;;;;;;;;;;5031967;28;20499;-59
2022/01/15 10:52:25;;;;;;;31.55;18.85;;;;;;;;;;5037190;28;21308;-59
2022/01/15 10:55:00;;;;;;;30.42;19.48;;;;;;;;;;5036769;28;20096;-59
2022/01/15 10:57:36;;;;;;;34.90;19.13;;;;;;;;;;5028597;28;20111;-59
2022/01/15 11:00:05;;;;;;;28.85;16.90;;;;;;;;;;5029829;28;20513;-59
2022/01/15 11:02:32;;;;;;;29.25;16.85;;;;;;;;;;5033963;28;20029;-59
2022/01/15 11:04:58;;;;;;;27.58;16.42;;;;;;;;;;5020063;28;20052;-59
2022/01/15 11:07:24;;;;;;;27.42;16.17;;;;;;;;;;5026036;28;20079;-60
2022/01/15 11:09:53;;;;;;;27.45;16.83;;;;;;;;;;5035470;28;20476;-60
2022/01/15 11:12:20;;;;;;;26.88;15.95;;;;;;;;;;5039063;28;20021;-59
2022/01/15 11:14:46;;;;;;;26.30;15.75;;;;;;;;;;5029227;28;20028;-60
2022/01/15 11:17:12;;;;;;;28.25;17.30;;;;;;;;;;5018922;28;20466;-59
2022/01/15 11:19:40;;;;;;;25.42;16.75;;;;;;;;;;5030791;28;20477;-59
2022/01/15 11:22:06;;;;;;;26.38;15.73;;;;;;;;;;5031402;28;20071;-60
2022/01/15 11:24:32;;;;;;;24.73;15.93;;;;;;;;;;5026509;28;20461;-59
2022/01/15 11:27:00;;;;;;;22.60;13.88;;;;;;;;;;5020580;28;20029;-60
2022/01/15 11:29:26;;;;;;;26.50;16.08;;;;;;;;;;5032143;28;20114;-59
2022/01/15 11:31:53;;;;;;;23.58;14.57;;;;;;;;;;5028571;28;20040;-60
2022/01/15 11:34:27;;;;;;;24.02;14.90;;;;;;;;;;5032285;28;20116;-60
2022/01/15 11:36:53;;;;;;;24.02;16.42;;;;;;;;;;5033356;28;20100;-59
2022/01/15 11:39:19;;;;;;;26.17;15.25;;;;;;;;;;5028170;28;20036;-59
2022/01/15 11:41:48;;;;;;;26.23;16.60;;;;;;;;;;5028251;28;20030;-60
2022/01/15 11:44:37;;;;;;;24.90;15.65;;;4.50;99.90;;;;;;5031916;28;20024;-59
2022/01/15 11:47:15;;;;;;;26.60;14.88;;;;;;;;;;5032006;28;20048;-59
2022/01/15 11:49:44;;;;;;;22.70;14.73;;;;;;;;;;5034257;28;20059;-59
2022/01/15 11:52:14;;;;;;;24.38;15.57;;;;;;;;;;5035457;28;20206;-60
2022/01/15 11:54:48;;;;;;;23.45;14.25;;;4.40;99.90;;;;;;5030595;28;20521;-59
2022/01/15 11:57:21;;;;;;;21.63;14.55;;;;;;;;;;5034503;28;20021;-59
2022/01/15 11:59:52;;;;;;;21.52;14.45;;;4.60;99.90;;;;;;5030510;28;20052;-59
2022/01/15 12:02:31;;;;;;;23.13;15.63;;;4.60;99.90;;;;;;5025849;28;20057;-59
2022/01/15 12:05:15;;;;;;;20.85;14.70;;;4.70;99.90;;;;;;5031050;28;20099;-59
2022/01/15 12:07:45;;;;;;;23.38;15.00;;;4.50;99.90;;;;;;5024342;28;20029;-60
2022/01/15 12:10:15;;;;;;;22.35;14.98;;;4.30;99.90;;;;;;5025599;28;20048;-59
2022/01/15 12:12:44;;;;;;;20.77;14.23;;;;;;;;;;5030326;28;20025;-59
2022/01/15 12:15:17;;;;;;;22.70;15.52;;;4.50;99.90;;;;;;5029899;28;20040;-59
2022/01/15 12:17:54;;;;;;;18.53;12.60;;;4.70;99.90;;;;;;5033490;28;20025;-59
2022/01/15 12:20:26;;;;;;;22.55;14.43;;;4.70;99.90;;;;;;5011338;28;20030;-59
2022/01/15 12:22:53;;;;;;;22.63;15.43;;;;;;;;;;5030465;28;20024;-59
2022/01/15 12:25:21;;;;;;;20.70;14.95;;;4.50;99.90;;;;;;5022089;28;20033;-60
2022/01/15 12:27:57;;;;;;;25.10;17.38;;;4.50;99.90;;;;;;5031839;28;20457;-60
2022/01/15 12:30:27;;;;;;;24.30;17.90;;;4.50;99.90;;;;;;5031967;28;20138;-59
2022/01/15 12:32:56;;;;;;;25.75;17.02;;;;;;;;;;5027740;28;20034;-59
2022/01/15 12:35:24;;;;;;;23.05;17.65;;;4.50;99.90;;;;;;5030834;28;20089;-60
2022/01/15 12:38:10;;;;;;;26.02;18.65;;;4.10;99.90;;;;;;5019806;28;20037;-60
2022/01/15 12:40:45;;;;;;;28.40;19.95;;;3.60;99.90;;;;;;5032530;28;20039;-59
2022/01/15 12:43:11;;;;;;;28.25;19.85;;;;;;;;;;5025496;28;20476;-59
2022/01/15 12:45:38;;;;;;;22.73;16.25;;;;;;;;;;5033864;28;20045;-60
2022/01/15 12:48:04;;;;;;;24.25;16.77;;;;;;;;;;5012532;28;20109;-60
2022/01/15 12:50:41;;;;;;;25.92;18.23;;;;;;;;;;5024991;28;20041;-59
2022/01/15 12:53:07;;;;;;;27.20;18.73;;;;;;;;;;5032797;28;20033;-60
2022/01/15 12:55:35;;;;;;;25.33;18.20;;;;;;;;;;5029411;28;20029;-60
2022/01/15 12:58:01;;;;;;;26.85;18.38;;;;;;;;;;5044122;28;20974;-60
2022/01/15 13:00:32;;;;;;;25.75;17.90;;;;;;;;;;5027818;28;20021;-59
2022/01/15 13:02:59;;;;;;;25.67;17.65;;;;;;;;;;5031446;28;20017;-60
2022/01/15 13:05:29;;;;;;;26.88;18.92;;;;;;;;;;5029761;28;20477;-59
2022/01/15 13:08:01;;;;;;;27.98;18.63;;;;;;;;;;5034833;28;20162;-60
2022/01/15 13:10:31;;;;;;;25.75;17.83;;;;;;;;;;5032218;28;20044;-60
2022/01/15 13:12:57;;;;;;;25.55;18.17;;;;;;;;;;5028867;28;20032;-59
2022/01/15 13:15:25;;;;;;;29.88;18.83;;;;;;;;;;5018228;28;20033;-59
2022/01/15 13:17:51;;;;;;;31.38;20.35;;;;;;;;;;5018044;28;20021;-59
2022/01/15 13:20:26;;;;;;;30.95;20.15;;;;;;;;;;5030573;28;20035;-59
2022/01/15 13:22:52;;;;;;;28.23;18.30;;;;;;;;;;5028870;28;20082;-60
2022/01/15 13:25:25;;;;;;;24.42;17.50;;;;;;;;;;5033215;28;20735;-60
2022/01/15 13:27:51;;;;;;;21.97;15.57;;;;;;;;;;5033132;28;20254;-59
2022/01/15 13:30:19;;;;;;;23.15;16.20;;;;;;;;;;5041991;28;20075;-59
2022/01/15 13:32:56;;;;;;;24.33;16.90;;;;;;;;;;5036068;28;20025;-60
2022/01/15 13:35:24;;;;;;;24.30;17.30;;;;;;;;;;5038149;28;20223;-59
2022/01/15 13:37:54;;;;;;;23.42;16.67;;;;;;;;;;5025931;28;20018;-60
2022/01/15 13:40:49;;;;;;;21.90;16.42;;;;;;;;;;5031587;28;20033;-60
2022/01/15 13:43:30;;;;;;;21.75;15.25;;;;;;;;;;5012103;28;20548;-59
2022/01/15 13:46:07;;;;;;;22.90;15.65;;;;;;;;;;5030030;28;20113;-59
2022/01/15 13:48:34;;;;;;;21.10;15.43;;;;;;;;;;5026030;28;20448;-61
2022/01/15 13:53:47;;;;;;;24.70;16.17;;;;;;;;;;5031116;28;20028;-59
2022/01/15 13:56:14;;;;;;;22.42;15.82;;;;;;;;;;5034297;28;20021;-59
2022/01/15 13:58:43;;;;;;;21.80;15.18;;;;;;;;;;5031643;28;20029;-60
2022/01/15 14:01:19;;;;;;;23.05;15.93;;;;;;;;;;5024584;28;20127;-60
2022/01/15 14:03:45;;;;;;;23.67;16.38;;;;;;;;;;5032724;28;20060;-60
2022/01/15 14:06:11;;;;;;;19.77;14.82;;;;;;;;;;5032263;28;20128;-59
2022/01/15 14:08:37;;;;;;;20.98;15.07;;;;;;;;;;5030640;28;20068;-59
2022/01/15 14:11:09;;;;;;;22.45;15.77;;;;;;;;;;5028371;28;20033;-60
2022/01/15 14:13:34;;;;;;;19.55;14.93;;;;;;;;;;5029210;28;20440;-59
2022/01/15 14:16:00;;;;;;;20.75;14.68;;;;;;;;;;5033067;28;20021;-60
2022/01/15 14:18:30;;;;;;;20.95;15.85;;;;;;;;;;5020157;28;20108;-60
2022/01/15 14:23:33;;;;;;;125.68;73.03;;;;;;;;;;5022541;28;20107;-59
2022/01/15 14:26:00;;;;;;;22.33;16.15;;;;;;;;;;5038094;28;20059;-60
2022/01/15 14:28:26;;;;;;;24.02;17.35;;;;;;;;;;5016406;28;20144;-60
2022/01/15 14:30:55;;;;;;;25.13;18.60;;;;;;;;;;5019679;28;20029;-59
2022/01/15 14:33:22;;;;;;;27.05;17.83;;;;;;;;;;5030493;28;20059;-59
2022/01/15 14:35:48;;;;;;;23.70;17.67;;;;;;;;;;5029316;28;20497;-60
2022/01/15 14:38:14;;;;;;;23.85;17.35;;;;;;;;;;5036506;28;20476;-59
2022/01/15 14:40:40;;;;;;;23.40;18.23;;;;;;;;;;5037934;28;20020;-60
2022/01/15 14:43:06;;;;;;;29.15;20.23;;;;;;;;;;5034972;28;20029;-61